createdAt,value
2023-01-06T00:01:18.966Z,11.40
2023-01-06T00:03:51.764Z,9.91
2023-01-06T00:06:20.824Z,9.52
2023-01-06T00:08:48.529Z,11.70
2023-01-06T00:11:16.184Z,11.83
2023-01-06T00:13:43.616Z,12.04
2023-01-06T00:16:14.050Z,11.46
2023-01-06T00:18:42.089Z,10.37
2023-01-06T00:21:10.335Z,11.32
2023-01-06T00:23:38.290Z,10.96
2023-01-06T00:26:07.144Z,11.21
2023-01-06T00:28:35.530Z,10.14
2023-01-06T00:31:11.415Z,11.77
2023-01-06T00:33:41.482Z,12.02
2023-01-06T00:36:10.693Z,11.23
2023-01-06T00:38:38.936Z,11.83
2023-01-06T00:41:28.208Z,11.59
2023-01-06T00:43:59.964Z,11.99
2023-01-06T00:46:29.600Z,12.46
2023-01-06T00:49:07.151Z,12.12
2023-01-06T00:51:37.370Z,10.32
2023-01-06T00:54:10.719Z,11.19
2023-01-06T00:56:46.569Z,11.58
2023-01-06T00:59:16.369Z,10.53
2023-01-06T01:01:44.635Z,12.68
2023-01-06T01:04:14.023Z,10.92
2023-01-06T01:06:44.046Z,12.34
2023-01-06T01:09:17.009Z,10.49
2023-01-06T01:12:03.669Z,10.61
2023-01-06T01:14:31.139Z,9.73
2023-01-06T01:16:59.003Z,10.60
2023-01-06T01:19:27.658Z,9.22
2023-01-06T01:21:55.424Z,9.15
2023-01-06T01:24:23.310Z,9.62
2023-01-06T01:26:51.020Z,10.10
2023-01-06T01:29:19.149Z,9.64
2023-01-06T01:31:47.551Z,9.18
2023-01-06T01:34:16.663Z,9.72
2023-01-06T01:36:46.068Z,9.60
2023-01-06T01:39:16.278Z,9.07
2023-01-06T01:41:43.974Z,9.35
2023-01-06T01:44:48.884Z,9.00
2023-01-06T01:47:23.242Z,9.50
2023-01-06T01:49:53.379Z,8.90
2023-01-06T01:52:21.901Z,9.00
2023-01-06T01:54:50.314Z,9.19
2023-01-06T01:57:23.787Z,9.69
2023-01-06T01:59:51.676Z,8.96
2023-01-06T02:02:19.891Z,9.34
2023-01-06T02:04:51.312Z,10.03
2023-01-06T02:07:19.551Z,9.33
2023-01-06T02:09:53.558Z,9.62
2023-01-06T02:12:23.310Z,9.76
2023-01-06T02:14:50.745Z,9.24
2023-01-06T02:17:33.650Z,8.80
2023-01-06T02:20:03.754Z,10.03
2023-01-06T02:23:02.388Z,9.74
2023-01-06T02:25:39.051Z,10.43
2023-01-06T02:28:35.084Z,10.05
2023-01-06T02:31:40.317Z,10.15
2023-01-06T02:34:30.295Z,9.23
2023-01-06T02:36:58.939Z,9.64
2023-01-06T02:39:43.648Z,9.28
2023-01-06T02:42:42.995Z,8.80
2023-01-06T02:45:16.523Z,9.10
2023-01-06T02:48:03.999Z,10.29
2023-01-06T02:51:10.181Z,8.70
2023-01-06T02:53:49.787Z,8.90
2023-01-06T02:56:20.837Z,8.76
2023-01-06T02:58:59.826Z,9.24
2023-01-06T03:01:41.926Z,9.23
2023-01-06T03:04:15.442Z,9.16
2023-01-06T03:06:46.301Z,8.88
2023-01-06T03:09:19.791Z,8.81
2023-01-06T03:11:51.537Z,8.80
2023-01-06T03:14:25.186Z,9.02
2023-01-06T03:16:54.569Z,8.73
2023-01-06T03:19:22.483Z,8.56
2023-01-06T03:21:51.632Z,8.90
2023-01-06T03:24:20.667Z,8.60
2023-01-06T03:26:48.708Z,8.72
2023-01-06T03:29:17.281Z,8.67
2023-01-06T03:31:53.360Z,9.06
2023-01-06T03:34:48.211Z,8.43
2023-01-06T03:37:37.272Z,8.69
2023-01-06T03:40:14.665Z,8.69
2023-01-06T03:43:13.567Z,8.54
2023-01-06T03:45:56.668Z,8.57
2023-01-06T03:48:44.862Z,9.49
2023-01-06T03:51:43.047Z,9.69
2023-01-06T03:54:25.114Z,8.69
2023-01-06T03:57:14.910Z,8.70
2023-01-06T03:59:47.745Z,8.63
2023-01-06T04:02:15.595Z,8.57
2023-01-06T04:04:43.563Z,9.15
2023-01-06T04:07:11.417Z,9.46
2023-01-06T04:09:39.164Z,9.12
2023-01-06T04:12:26.471Z,8.73
2023-01-06T04:14:54.183Z,8.91
2023-01-06T04:17:22.030Z,8.60
2023-01-06T04:19:49.809Z,8.82
2023-01-06T04:22:17.936Z,8.78
2023-01-06T04:24:45.698Z,8.39
2023-01-06T04:27:13.572Z,8.57
2023-01-06T04:29:41.046Z,8.91
2023-01-06T04:32:08.730Z,8.68
2023-01-06T04:34:36.652Z,9.64
2023-01-06T04:37:04.205Z,8.65
2023-01-06T04:39:31.963Z,8.55
2023-01-06T04:41:59.343Z,9.10
2023-01-06T04:44:26.807Z,8.38
2023-01-06T04:46:54.583Z,8.53
2023-01-06T04:49:22.009Z,8.98
2023-01-06T04:51:49.415Z,9.53
2023-01-06T04:54:17.239Z,9.81
2023-01-06T04:56:44.739Z,8.65
2023-01-06T04:59:12.157Z,9.91
2023-01-06T05:01:40.038Z,9.14
2023-01-06T05:04:07.678Z,9.29
2023-01-06T05:06:35.681Z,8.28
2023-01-06T05:09:03.484Z,8.61
2023-01-06T05:11:30.927Z,8.60
2023-01-06T05:13:58.476Z,8.62
2023-01-06T05:16:28.252Z,8.89
2023-01-06T05:18:56.496Z,8.64
2023-01-06T05:21:24.952Z,8.49
2023-01-06T05:23:53.002Z,8.92
2023-01-06T05:26:22.494Z,8.56
2023-01-06T05:28:50.327Z,8.60
2023-01-06T05:31:18.414Z,9.64
2023-01-06T05:33:45.943Z,9.83
2023-01-06T05:36:15.570Z,9.93
2023-01-06T05:38:43.968Z,10.47
2023-01-06T05:41:11.622Z,8.73
2023-01-06T05:43:39.095Z,9.16
2023-01-06T05:46:09.159Z,8.79
2023-01-06T05:48:37.216Z,8.99
2023-01-06T05:51:06.711Z,8.98
2023-01-06T05:53:36.732Z,9.05
2023-01-06T05:56:05.923Z,8.62
2023-01-06T05:58:34.189Z,9.18
2023-01-06T06:01:02.484Z,9.83
2023-01-06T06:03:31.411Z,9.81
2023-01-06T06:06:06.488Z,9.04
2023-01-06T06:08:34.250Z,10.36
2023-01-06T06:11:03.651Z,10.88
2023-01-06T06:13:31.625Z,10.32
2023-01-06T06:16:12.398Z,9.53
2023-01-06T06:18:44.808Z,10.88
2023-01-06T06:21:14.576Z,10.40
2023-01-06T06:23:42.549Z,12.75
2023-01-06T06:26:11.452Z,13.61
2023-01-06T06:28:39.974Z,10.45
2023-01-06T06:31:10.421Z,9.89
2023-01-06T06:33:38.858Z,11.92
2023-01-06T06:36:12.089Z,10.97
2023-01-06T06:38:39.585Z,10.96
2023-01-06T06:41:07.388Z,10.27
2023-01-06T06:43:35.107Z,9.72
2023-01-06T06:46:02.782Z,9.44
2023-01-06T06:48:30.648Z,9.49
2023-01-06T06:51:07.234Z,9.32
2023-01-06T06:53:35.751Z,9.71
2023-01-06T06:56:05.388Z,10.60
2023-01-06T06:58:33.728Z,11.49
2023-01-06T07:01:09.558Z,11.72
2023-01-06T07:03:37.118Z,11.99
2023-01-06T07:06:07.141Z,13.12
2023-01-06T07:08:34.882Z,14.06
2023-01-06T07:11:02.533Z,14.97
2023-01-06T07:13:30.219Z,12.35
2023-01-06T07:15:57.814Z,11.24
2023-01-06T07:18:25.376Z,10.96
2023-01-06T07:20:54.093Z,10.35
2023-01-06T07:23:23.068Z,11.58
2023-01-06T07:25:55.119Z,11.49
2023-01-06T07:28:23.608Z,10.70
2023-01-06T07:30:51.222Z,10.25
2023-01-06T07:33:19.475Z,10.46
2023-01-06T07:35:47.359Z,10.39
2023-01-06T07:38:14.831Z,10.46
2023-01-06T07:40:43.565Z,9.83
2023-01-06T07:43:11.882Z,9.67
2023-01-06T07:45:39.567Z,9.18
2023-01-06T07:48:07.238Z,10.48
2023-01-06T07:50:35.050Z,12.30
2023-01-06T07:53:03.102Z,11.68
2023-01-06T07:55:30.639Z,13.12
2023-01-06T07:58:01.164Z,10.91
2023-01-06T08:00:28.619Z,10.52
2023-01-06T08:02:56.673Z,11.85
2023-01-06T08:05:24.258Z,12.21
2023-01-06T08:07:51.874Z,11.92
2023-01-06T08:10:19.775Z,12.94
2023-01-06T08:12:47.289Z,10.47
2023-01-06T08:15:14.793Z,11.21
2023-01-06T08:17:43.144Z,12.99
2023-01-06T08:20:11.032Z,12.85
2023-01-06T08:22:38.616Z,13.56
2023-01-06T08:25:06.859Z,12.81
2023-01-06T08:27:34.408Z,12.14
2023-01-06T08:30:02.053Z,11.67
2023-01-06T08:32:30.928Z,11.37
2023-01-06T08:34:58.394Z,12.24
2023-01-06T08:37:26.029Z,11.82
2023-01-06T08:39:53.752Z,11.80
2023-01-06T08:42:21.399Z,11.86
2023-01-06T08:44:48.962Z,11.71
2023-01-06T08:47:16.749Z,11.85
2023-01-06T08:49:44.233Z,12.63
2023-01-06T08:52:11.677Z,12.42
2023-01-06T08:54:39.456Z,12.14
2023-01-06T08:57:08.389Z,12.86
2023-01-06T08:59:35.910Z,13.52
2023-01-06T09:02:03.806Z,13.89
2023-01-06T09:04:31.267Z,11.18
2023-01-06T09:06:58.699Z,12.34
2023-01-06T09:09:26.699Z,11.86
2023-01-06T09:11:54.828Z,11.54
2023-01-06T09:14:23.260Z,10.17
2023-01-06T09:16:51.069Z,11.97
2023-01-06T09:19:20.576Z,9.87
2023-01-06T09:21:48.488Z,11.36
2023-01-06T09:24:16.733Z,11.68
2023-01-06T09:26:44.167Z,11.05
2023-01-06T09:29:11.706Z,11.99
2023-01-06T09:31:39.504Z,11.43
2023-01-06T09:34:07.033Z,12.15
2023-01-06T09:36:34.661Z,11.79
2023-01-06T09:39:02.469Z,11.97
2023-01-06T09:41:50.028Z,10.65
2023-01-06T09:44:22.356Z,12.03
2023-01-06T09:46:51.731Z,11.70
2023-01-06T09:49:22.569Z,11.57
2023-01-06T09:51:50.070Z,12.48
2023-01-06T09:54:21.134Z,12.70
2023-01-06T09:56:55.001Z,13.05
2023-01-06T09:59:34.325Z,13.48
2023-01-06T10:02:03.332Z,11.48
2023-01-06T10:04:31.237Z,10.16
2023-01-06T10:07:01.713Z,10.41
2023-01-06T10:09:40.199Z,10.61
2023-01-06T10:12:45.822Z,11.55
2023-01-06T10:15:28.467Z,11.11
2023-01-06T10:18:08.457Z,12.26
2023-01-06T10:20:55.771Z,12.84
2023-01-06T10:23:35.727Z,10.60
2023-01-06T10:26:12.641Z,11.21
2023-01-06T10:28:43.627Z,11.69
2023-01-06T10:31:20.549Z,12.20
2023-01-06T10:33:50.919Z,13.16
2023-01-06T10:36:22.877Z,13.05
2023-01-06T10:38:52.360Z,13.14
2023-01-06T10:41:44.328Z,11.03
2023-01-06T10:44:13.468Z,10.76
2023-01-06T10:46:41.825Z,9.82
2023-01-06T10:49:23.051Z,10.11
2023-01-06T10:51:57.742Z,11.26
2023-01-06T10:54:28.959Z,12.90
2023-01-06T10:57:01.523Z,12.27
2023-01-06T10:59:29.276Z,12.74
2023-01-06T11:01:57.957Z,11.91
2023-01-06T11:04:27.881Z,11.19
2023-01-06T11:06:56.724Z,11.07
2023-01-06T11:09:29.255Z,13.10
2023-01-06T11:11:59.475Z,11.49
2023-01-06T11:14:30.778Z,11.40
2023-01-06T11:17:03.089Z,11.79
2023-01-06T11:19:42.269Z,11.55
2023-01-06T11:22:36.843Z,13.21
2023-01-06T11:25:23.303Z,13.78
2023-01-06T11:28:09.614Z,13.78
2023-01-06T11:30:40.734Z,11.94
2023-01-06T11:33:17.676Z,14.65
2023-01-06T11:35:48.586Z,12.85
2023-01-06T11:38:18.196Z,13.64
2023-01-06T11:40:47.800Z,14.56
2023-01-06T11:43:25.377Z,14.56
2023-01-06T11:45:57.477Z,14.54
2023-01-06T11:49:04.428Z,15.09
2023-01-06T11:51:46.182Z,12.73
2023-01-06T11:54:34.701Z,11.35
2023-01-06T11:57:39.965Z,14.09
2023-01-06T12:00:25.848Z,14.97
2023-01-06T12:03:41.640Z,13.64
2023-01-06T12:06:18.604Z,14.42
2023-01-06T12:09:03.471Z,14.65
2023-01-06T12:11:44.575Z,12.26
2023-01-06T12:14:28.129Z,15.31
2023-01-06T12:17:31.156Z,15.90
2023-01-06T12:20:08.973Z,16.26
2023-01-06T12:22:49.699Z,15.47
2023-01-06T12:25:25.745Z,15.75
2023-01-06T12:28:28.151Z,16.25
2023-01-06T12:30:59.052Z,15.18
2023-01-06T12:33:40.222Z,14.48
2023-01-06T12:36:28.472Z,15.83
2023-01-06T12:38:57.905Z,15.39
2023-01-06T12:41:30.488Z,16.60
2023-01-06T12:44:07.055Z,16.03
2023-01-06T12:46:40.118Z,15.52
2023-01-06T12:49:20.050Z,13.55
2023-01-06T12:51:52.898Z,15.53
2023-01-06T12:54:29.359Z,14.06
2023-01-06T12:57:05.279Z,15.95
2023-01-06T12:59:46.824Z,15.56
2023-01-06T13:02:35.621Z,15.71
2023-01-06T13:05:41.664Z,14.29
2023-01-06T13:08:23.986Z,12.30
2023-01-06T13:11:08.195Z,12.79
2023-01-06T13:14:13.737Z,13.87
2023-01-06T13:16:52.051Z,12.89
2023-01-06T13:19:45.229Z,13.41
2023-01-06T13:22:43.534Z,14.81
2023-01-06T13:25:39.250Z,16.40
2023-01-06T13:28:25.408Z,16.00
2023-01-06T13:31:07.452Z,13.23
2023-01-06T13:34:12.342Z,16.08
2023-01-06T13:36:53.471Z,15.71
2023-01-06T13:39:27.231Z,17.06
2023-01-06T13:41:56.918Z,16.29
2023-01-06T13:44:28.036Z,17.06
2023-01-06T13:47:09.625Z,17.38
2023-01-06T13:49:38.807Z,17.19
2023-01-06T13:52:17.617Z,15.24
2023-01-06T13:54:44.961Z,16.73
2023-01-06T13:57:21.478Z,16.61
2023-01-06T14:00:00.915Z,16.97
2023-01-06T14:02:54.581Z,16.77
2023-01-06T14:05:22.500Z,16.77
2023-01-06T14:08:04.110Z,15.34
2023-01-06T14:10:45.975Z,14.98
2023-01-06T14:13:24.577Z,14.71
2023-01-06T14:15:58.552Z,15.40
2023-01-06T14:18:33.119Z,14.81
2023-01-06T14:21:04.993Z,14.81
2023-01-06T14:23:32.912Z,14.93
2023-01-06T14:26:00.847Z,14.35
2023-01-06T14:28:29.763Z,14.50
2023-01-06T14:31:31.469Z,14.25
2023-01-06T14:34:02.793Z,14.22
2023-01-06T14:36:32.667Z,14.84
2023-01-06T14:39:05.554Z,15.13
2023-01-06T14:41:36.777Z,15.02
2023-01-06T14:44:37.386Z,15.12
2023-01-06T14:47:08.538Z,15.14
2023-01-06T14:49:47.134Z,15.08
2023-01-06T14:52:20.091Z,14.80
2023-01-06T14:54:49.853Z,15.06
2023-01-06T14:57:34.807Z,15.14
2023-01-06T15:00:29.690Z,14.93
2023-01-06T15:03:02.921Z,14.30
2023-01-06T15:05:33.378Z,13.64
2023-01-06T15:08:27.216Z,12.73
2023-01-06T15:10:54.935Z,11.61
2023-01-06T15:13:30.343Z,11.45
2023-01-06T15:16:09.685Z,11.49
2023-01-06T15:18:42.522Z,10.78
2023-01-06T15:21:12.721Z,10.36
2023-01-06T15:23:47.440Z,10.64
2023-01-06T15:26:26.892Z,10.65
2023-01-06T15:29:02.452Z,10.84
2023-01-06T15:31:33.441Z,11.37
2023-01-06T15:34:05.476Z,12.17
2023-01-06T15:36:34.051Z,12.39
2023-01-06T15:39:04.913Z,14.13
2023-01-06T15:41:33.254Z,14.31
2023-01-06T15:44:01.558Z,13.38
2023-01-06T15:46:38.670Z,12.93
2023-01-06T15:49:07.108Z,11.65
2023-01-06T15:51:34.715Z,11.73
2023-01-06T15:54:04.158Z,13.23
2023-01-06T15:56:32.214Z,13.94
2023-01-06T15:58:59.967Z,13.70
2023-01-06T16:01:27.559Z,13.80
2023-01-06T16:04:00.021Z,13.11
2023-01-06T16:06:37.201Z,12.63
2023-01-06T16:09:20.287Z,13.94
2023-01-06T16:12:04.190Z,14.97
2023-01-06T16:14:40.292Z,14.56
2023-01-06T16:17:28.233Z,14.53
2023-01-06T16:20:01.032Z,14.27
2023-01-06T16:22:47.971Z,14.73
2023-01-06T16:25:26.149Z,15.46
2023-01-06T16:27:55.726Z,15.11
2023-01-06T16:30:30.107Z,14.89
2023-01-06T16:33:00.279Z,15.13
2023-01-06T16:35:30.436Z,15.77
2023-01-06T16:37:58.132Z,15.49
2023-01-06T16:40:27.646Z,12.38
2023-01-06T16:43:00.592Z,11.48
2023-01-06T16:45:28.720Z,12.38
2023-01-06T16:47:57.691Z,12.30
2023-01-06T16:50:34.471Z,12.23
2023-01-06T16:53:10.392Z,11.61
2023-01-06T16:55:39.565Z,11.56
2023-01-06T16:58:19.554Z,11.95
2023-01-06T17:00:51.916Z,13.75
2023-01-06T17:03:25.428Z,15.18
2023-01-06T17:05:53.494Z,16.04
2023-01-06T17:08:38.468Z,14.66
2023-01-06T17:11:24.442Z,11.64
2023-01-06T17:14:04.764Z,10.83
2023-01-06T17:16:35.561Z,11.29
2023-01-06T17:19:14.160Z,11.41
2023-01-06T17:21:41.859Z,11.05
2023-01-06T17:24:25.568Z,14.03
2023-01-06T17:26:58.371Z,14.91
2023-01-06T17:29:33.671Z,14.51
2023-01-06T17:32:03.076Z,13.88
2023-01-06T17:34:33.577Z,14.50
2023-01-06T17:37:13.032Z,11.37
2023-01-06T17:39:43.038Z,9.67
2023-01-06T17:42:13.511Z,10.32
2023-01-06T17:44:46.843Z,10.12
2023-01-06T17:47:17.203Z,10.27
2023-01-06T17:49:49.140Z,9.94
2023-01-06T17:52:22.202Z,9.70
2023-01-06T17:55:11.659Z,9.62
2023-01-06T17:57:41.235Z,10.23
2023-01-06T18:00:19.691Z,10.54
2023-01-06T18:02:51.995Z,10.53
2023-01-06T18:05:25.582Z,9.48
2023-01-06T18:08:07.251Z,8.90
2023-01-06T18:10:39.248Z,9.09
2023-01-06T18:13:18.677Z,9.88
2023-01-06T18:15:48.258Z,9.18
2023-01-06T18:18:21.289Z,9.34
2023-01-06T18:21:16.627Z,9.41
2023-01-06T18:23:45.832Z,9.55
2023-01-06T18:26:28.609Z,10.03
2023-01-06T18:29:00.248Z,10.23
2023-01-06T18:31:32.761Z,10.41
2023-01-06T18:34:35.540Z,9.70
2023-01-06T18:37:03.375Z,8.96
2023-01-06T18:39:41.703Z,8.03
2023-01-06T18:42:23.615Z,9.45
2023-01-06T18:44:57.702Z,11.13
2023-01-06T18:47:25.374Z,12.65
2023-01-06T18:50:29.802Z,12.73
2023-01-06T18:52:58.505Z,13.59
2023-01-06T18:55:51.952Z,12.97
2023-01-06T18:58:46.519Z,10.33
2023-01-06T19:01:37.092Z,11.20
2023-01-06T19:04:10.836Z,11.30
2023-01-06T19:06:47.970Z,10.54
2023-01-06T19:09:20.009Z,10.02
2023-01-06T19:24:27.342Z,10.62
2023-01-06T19:26:57.231Z,10.16
2023-01-06T19:29:32.029Z,9.94
2023-01-06T19:32:12.957Z,9.68
2023-01-06T19:38:28.312Z,10.39
2023-01-06T19:41:01.562Z,12.26
2023-01-06T19:43:33.633Z,13.03
2023-01-06T19:46:15.434Z,13.42
2023-01-06T19:48:49.447Z,13.74
2023-01-06T19:51:34.440Z,12.46
2023-01-06T19:54:04.702Z,14.00
2023-01-06T19:56:37.917Z,13.66
2023-01-06T19:59:10.668Z,14.56
2023-01-06T20:01:38.828Z,15.21
2023-01-06T20:04:22.626Z,15.31
2023-01-06T20:06:50.958Z,15.33
2023-01-06T20:09:25.719Z,16.31
2023-01-06T20:11:55.015Z,14.89
2023-01-06T20:14:26.400Z,13.31
2023-01-06T20:16:54.126Z,14.52
2023-01-06T20:19:22.338Z,13.11
2023-01-06T20:21:51.590Z,12.50
2023-01-06T20:24:19.614Z,10.26
2023-01-06T20:26:47.191Z,10.98
2023-01-06T20:29:15.083Z,11.70
2023-01-06T20:31:42.986Z,11.24
2023-01-06T20:34:10.684Z,11.47
2023-01-06T20:36:38.611Z,11.50
2023-01-06T20:39:06.208Z,10.95
2023-01-06T20:41:33.711Z,10.95
2023-01-06T20:44:01.638Z,10.46
2023-01-06T20:46:29.804Z,10.96
2023-01-06T20:48:57.441Z,11.01
2023-01-06T20:51:25.689Z,11.10
2023-01-06T20:53:53.571Z,10.92
2023-01-06T20:56:21.424Z,11.48
2023-01-06T20:58:49.252Z,11.83
2023-01-06T21:01:17.270Z,11.65
2023-01-06T21:03:45.035Z,11.00
2023-01-06T21:06:12.891Z,10.31
2023-01-06T21:08:40.615Z,9.47
2023-01-06T21:11:08.640Z,9.77
2023-01-06T21:13:36.842Z,10.24
2023-01-06T21:16:04.443Z,10.50
2023-01-06T21:18:34.096Z,11.17
2023-01-06T21:21:02.912Z,12.34
2023-01-06T21:23:30.491Z,13.40
2023-01-06T21:25:57.934Z,14.19
2023-01-06T21:28:25.697Z,15.34
2023-01-06T21:30:53.195Z,15.72
2023-01-06T21:33:21.818Z,15.02
2023-01-06T21:35:50.124Z,11.42
2023-01-06T21:38:17.641Z,10.51
2023-01-06T21:40:45.195Z,10.46
2023-01-06T21:43:12.976Z,11.39
2023-01-06T21:45:42.631Z,10.23
2023-01-06T21:48:12.741Z,10.33
2023-01-06T21:50:43.557Z,9.89
2023-01-06T21:53:11.790Z,9.53
2023-01-06T21:55:40.473Z,9.08
2023-01-06T21:58:08.453Z,10.30
2023-01-06T22:00:35.930Z,10.26
2023-01-06T22:03:04.118Z,9.99
2023-01-06T22:05:31.666Z,10.63
2023-01-06T22:07:59.972Z,9.09
2023-01-06T22:10:27.773Z,10.18
2023-01-06T22:12:56.510Z,9.03
2023-01-06T22:15:24.217Z,8.56
2023-01-06T22:17:55.495Z,8.85
2023-01-06T22:20:23.131Z,9.49
2023-01-06T22:22:50.749Z,9.97
2023-01-06T22:25:18.541Z,10.42
2023-01-06T22:27:46.020Z,10.73
2023-01-06T22:30:13.624Z,10.87
2023-01-06T22:32:43.110Z,10.43
2023-01-06T22:35:12.225Z,10.32
2023-01-06T22:37:39.898Z,9.27
2023-01-06T22:40:08.607Z,10.28
2023-01-06T22:42:36.165Z,8.50
2023-01-06T22:45:04.632Z,8.76
2023-01-06T22:47:32.338Z,10.93
2023-01-06T22:50:01.512Z,8.69
2023-01-06T22:52:29.324Z,8.12
2023-01-06T22:54:57.141Z,8.06
2023-01-06T22:57:24.641Z,7.79
2023-01-06T22:59:53.650Z,8.01
2023-01-06T23:02:21.513Z,8.16
2023-01-06T23:04:49.097Z,8.42
2023-01-06T23:07:16.737Z,8.01
2023-01-06T23:09:44.493Z,8.09
2023-01-06T23:12:11.955Z,7.90
2023-01-06T23:14:39.556Z,7.64
2023-01-06T23:17:07.303Z,7.65
2023-01-06T23:19:34.790Z,8.19
2023-01-06T23:22:02.272Z,7.27
2023-01-06T23:24:30.082Z,7.67
2023-01-06T23:26:57.597Z,7.68
2023-01-06T23:29:25.069Z,7.28
2023-01-06T23:31:52.740Z,7.19
2023-01-06T23:34:20.309Z,7.31
2023-01-06T23:36:47.962Z,7.12
2023-01-06T23:39:17.168Z,7.36
2023-01-06T23:41:44.799Z,8.02
2023-01-06T23:44:15.086Z,9.44
2023-01-06T23:46:43.577Z,10.01
2023-01-06T23:49:13.549Z,11.25
2023-01-06T23:51:41.119Z,11.54
2023-01-06T23:54:10.562Z,8.11
2023-01-06T23:56:38.939Z,7.09
2023-01-06T23:59:07.828Z,7.66
